Time;durP1;ratioP1;P1;durP2;ratioP2;P2;SDS_P1;SDS_P2;PMS_P1;PMS_P2;Temp;Humidity;BMP_temperature;BMP_pressure;BME280_temperature;BME280_humidity;BME280_pressure;Samples;Min_cycle;Max_cycle;Signal;HPM_P1;HPM_P2
2023/09/30 00:01:01;;;;;;;17.90;9.70;;;25.20;66.90;;;;;;5033727;27;88532;-53
2023/09/30 00:03:29;;;;;;;18.27;10.27;;;25.20;66.10;;;;;;5033938;27;88485;-52
2023/09/30 00:05:58;;;;;;;15.53;9.33;;;25.20;66.00;;;;;;5036751;27;88882;-53
2023/09/30 00:08:27;;;;;;;16.60;8.47;;;25.20;66.10;;;;;;5030275;27;87749;-53
2023/09/30 00:10:55;;;;;;;15.73;9.27;;;25.20;66.00;;;;;;5039716;27;88555;-52
2023/09/30 00:13:23;;;;;;;14.17;8.17;;;25.20;66.00;;;;;;5034304;27;88673;-53
2023/09/30 00:15:53;;;;;;;12.73;8.53;;;25.20;66.00;;;;;;5038962;27;87664;-53
2023/09/30 00:18:21;;;;;;;12.20;7.67;;;25.20;66.10;;;;;;5038402;27;87985;-53
2023/09/30 00:20:49;;;;;;;15.93;8.87;;;25.20;66.00;;;;;;5038477;27;89633;-52
2023/09/30 00:23:18;;;;;;;12.13;8.50;;;25.20;66.00;;;;;;5038698;27;87995;-53
2023/09/30 00:25:46;;;;;;;13.80;8.30;;;25.20;66.10;;;;;;5038543;27;87707;-53
2023/09/30 00:28:14;;;;;;;15.00;8.40;;;25.20;66.10;;;;;;5038615;27;88305;-53
2023/09/30 00:30:45;;;;;;;13.67;8.20;;;25.20;66.20;;;;;;5038414;27;88545;-53
2023/09/30 00:33:15;;;;;;;12.53;8.40;;;25.10;66.00;;;;;;5036650;28;89511;-54
2023/09/30 00:35:43;;;;;;;13.67;8.53;;;25.10;66.00;;;;;;5038499;27;87721;-53
2023/09/30 00:38:11;;;;;;;13.10;7.90;;;25.10;65.90;;;;;;5038465;27;87634;-53
2023/09/30 00:40:39;;;;;;;13.27;7.97;;;25.10;66.00;;;;;;5038104;27;88580;-54
2023/09/30 00:43:07;;;;;;;9.90;7.10;;;25.10;66.00;;;;;;5037782;27;88977;-53
2023/09/30 00:45:35;;;;;;;11.77;7.87;;;25.10;66.10;;;;;;5036905;27;89482;-53
2023/09/30 00:48:04;;;;;;;15.57;8.17;;;25.10;66.00;;;;;;5035635;27;87680;-52
2023/09/30 00:50:33;;;;;;;13.93;8.67;;;25.10;66.00;;;;;;5040363;27;89704;-54
2023/09/30 00:53:01;;;;;;;12.10;8.53;;;25.10;66.10;;;;;;5035980;27;89041;-54
2023/09/30 00:55:30;;;;;;;12.13;7.87;;;25.10;66.10;;;;;;5040872;27;87907;-53
2023/09/30 00:57:58;;;;;;;10.43;6.83;;;25.10;66.10;;;;;;5041059;27;87746;-53
2023/09/30 01:00:26;;;;;;;10.03;6.70;;;25.10;66.20;;;;;;5040856;27;88546;-54
2023/09/30 01:02:54;;;;;;;12.87;8.03;;;25.00;66.20;;;;;;5040296;27;87512;-53
2023/09/30 01:05:23;;;;;;;15.20;7.67;;;25.00;66.10;;;;;;5037322;27;88866;-54
2023/09/30 01:07:52;;;;;;;13.30;7.90;;;25.10;66.30;;;;;;5040426;27;87965;-53
2023/09/30 01:10:20;;;;;;;10.97;7.00;;;25.10;66.30;;;;;;5040068;27;87421;-53
2023/09/30 01:12:48;;;;;;;9.07;6.83;;;25.10;66.30;;;;;;5038797;27;88025;-54
2023/09/30 01:15:16;;;;;;;11.43;7.40;;;25.00;66.30;;;;;;5040613;27;88945;-54
2023/09/30 01:17:44;;;;;;;14.30;8.73;;;25.00;66.30;;;;;;5033350;27;87619;-55
2023/09/30 01:20:19;;;;;;;10.40;6.80;;;25.00;66.20;;;;;;5029100;27;90118;-53
2023/09/30 01:22:49;;;;;;;10.57;6.73;;;25.00;66.30;;;;;;5040509;27;88819;-53
2023/09/30 01:25:17;;;;;;;10.40;6.93;;;25.00;66.30;;;;;;5036477;27;87763;-53
2023/09/30 01:27:45;;;;;;;10.00;6.37;;;25.00;66.30;;;;;;5035574;27;87882;-53
2023/09/30 01:30:13;;;;;;;11.03;7.03;;;25.00;66.80;;;;;;5028538;27;88171;-53
2023/09/30 01:32:41;;;;;;;8.27;5.63;;;25.00;66.50;;;;;;5039504;27;90112;-53
2023/09/30 01:35:10;;;;;;;10.83;7.43;;;25.00;66.40;;;;;;5040514;28;88325;-53
2023/09/30 01:37:38;;;;;;;9.47;5.93;;;25.00;66.40;;;;;;5033684;27;87664;-54
2023/09/30 01:40:11;;;;;;;9.23;6.43;;;24.90;66.30;;;;;;5032967;28;89755;-54
2023/09/30 01:42:39;;;;;;;9.27;5.97;;;25.00;66.40;;;;;;5040799;27;88076;-53
2023/09/30 01:45:08;;;;;;;8.73;5.03;;;24.90;66.40;;;;;;5040279;28;88830;-53
2023/09/30 01:47:36;;;;;;;7.53;4.70;;;25.00;66.30;;;;;;5040203;28;87697;-54
2023/09/30 01:50:05;;;;;;;8.10;4.40;;;24.90;66.30;;;;;;5040000;27;88696;-54
2023/09/30 01:52:34;;;;;;;4.73;3.40;;;25.00;66.20;;;;;;5039562;27;89058;-54
2023/09/30 01:55:02;;;;;;;7.47;4.23;;;25.00;66.30;;;;;;5040383;28;87543;-55
2023/09/30 01:57:32;;;;;;;5.60;4.13;;;24.90;66.10;;;;;;5039964;27;87930;-54
2023/09/30 02:00:00;;;;;;;7.43;4.60;;;25.00;66.30;;;;;;5040021;28;89627;-53
2023/09/30 02:02:28;;;;;;;11.37;5.30;;;25.00;66.30;;;;;;5039857;27;88145;-53
2023/09/30 02:04:56;;;;;;;7.63;4.13;;;24.90;66.20;;;;;;5038526;27;87709;-53
2023/09/30 02:07:25;;;;;;;4.33;3.70;;;24.90;66.20;;;;;;5027556;28;87608;-53
2023/09/30 02:09:53;;;;;;;5.87;3.57;;;24.90;66.20;;;;;;5040068;27;88813;-53
2023/09/30 02:12:21;;;;;;;6.30;3.27;;;24.90;66.70;;;;;;5035904;27;88047;-53
2023/09/30 02:14:50;;;;;;;7.17;4.40;;;24.90;67.00;;;;;;5035204;27;87744;-53
2023/09/30 02:17:18;;;;;;;6.47;4.77;;;25.00;66.30;;;;;;5039713;27;87671;-54
2023/09/30 02:19:47;;;;;;;9.77;5.47;;;25.00;66.30;;;;;;5034175;27;89568;-53
2023/09/30 02:22:15;;;;;;;6.63;4.47;;;24.90;66.20;;;;;;5039470;28;90068;-53
2023/09/30 02:24:43;;;;;;;6.80;4.77;;;24.90;66.30;;;;;;5037369;27;88579;-53
2023/09/30 02:27:11;;;;;;;6.03;4.50;;;24.90;66.30;;;;;;5036707;27;89094;-53
2023/09/30 02:29:39;;;;;;;7.37;4.33;;;24.90;66.30;;;;;;5035379;27;88685;-53
2023/09/30 02:32:09;;;;;;;6.07;4.20;;;24.90;66.30;;;;;;5038499;27;89077;-53
2023/09/30 02:34:37;;;;;;;7.10;4.37;;;24.90;66.40;;;;;;5040138;27;88943;-53
2023/09/30 02:37:06;;;;;;;6.30;4.30;;;24.90;66.30;;;;;;5037385;27;87718;-53
2023/09/30 02:39:34;;;;;;;5.50;3.53;;;24.90;66.30;;;;;;5028790;27;89466;-54
2023/09/30 02:42:02;;;;;;;5.07;3.17;;;24.90;66.40;;;;;;5028250;27;89015;-53
2023/09/30 02:44:30;;;;;;;5.33;3.40;;;24.90;66.40;;;;;;5035107;27;88879;-53
2023/09/30 02:46:58;;;;;;;6.13;3.53;;;24.90;66.50;;;;;;5036870;27;87955;-53
2023/09/30 02:49:28;;;;;;;5.53;3.13;;;24.90;66.50;;;;;;5021839;27;88570;-53
2023/09/30 02:51:56;;;;;;;6.20;3.80;;;24.90;66.60;;;;;;5026541;27;88053;-52
2023/09/30 02:54:24;;;;;;;5.80;3.47;;;24.90;66.60;;;;;;5021640;27;87530;-53
2023/09/30 02:56:52;;;;;;;5.77;3.60;;;24.90;66.50;;;;;;5036116;27;89122;-52
2023/09/30 02:59:22;;;;;;;5.63;3.13;;;24.80;66.40;;;;;;5043671;27;89672;-53
2023/09/30 03:01:50;;;;;;;10.43;4.00;;;24.80;66.40;;;;;;5045440;27;91363;-53
2023/09/30 03:04:19;;;;;;;6.63;3.10;;;24.80;66.50;;;;;;5050095;27;87549;-52
2023/09/30 03:06:49;;;;;;;4.47;3.13;;;24.80;66.40;;;;;;5048794;27;87785;-53
2023/09/30 03:09:17;;;;;;;5.87;2.70;;;24.80;66.50;;;;;;5043122;27;89766;-53
2023/09/30 03:11:46;;;;;;;6.00;3.77;;;24.80;66.50;;;;;;5042361;27;87950;-53
2023/09/30 03:14:14;;;;;;;6.30;3.57;;;24.80;66.50;;;;;;5034349;27;90126;-53
2023/09/30 03:16:44;;;;;;;3.87;2.90;;;24.80;66.50;;;;;;5052006;27;87655;-53
2023/09/30 03:19:12;;;;;;;4.43;3.27;;;24.80;66.50;;;;;;5060085;27;88595;-54
2023/09/30 03:21:40;;;;;;;7.47;2.90;;;24.80;66.50;;;;;;5062481;27;87483;-53
2023/09/30 03:24:11;;;;;;;7.57;3.60;;;24.80;66.50;;;;;;5048410;27;87937;-54
2023/09/30 03:26:40;;;;;;;5.27;3.40;;;24.80;66.60;;;;;;5052095;27;87491;-53
2023/09/30 03:29:09;;;;;;;5.00;3.33;;;24.80;66.50;;;;;;5061127;27;87253;-53
2023/09/30 03:31:37;;;;;;;4.03;2.93;;;24.80;66.50;;;;;;5055522;27;88035;-54
2023/09/30 03:34:06;;;;;;;4.20;2.93;;;24.80;66.60;;;;;;5061236;27;88841;-53
2023/09/30 03:36:35;;;;;;;6.67;4.00;;;24.80;66.60;;;;;;5055719;27;87852;-53
2023/09/30 03:39:07;;;;;;;4.43;2.97;;;24.80;66.50;;;;;;5042982;28;89840;-54
2023/09/30 03:41:37;;;;;;;3.70;3.00;;;24.80;66.50;;;;;;5046406;27;88169;-52
2023/09/30 03:44:06;;;;;;;4.90;2.93;;;24.80;66.50;;;;;;5052252;27;87761;-53
2023/09/30 03:46:34;;;;;;;6.93;4.03;;;24.80;66.50;;;;;;5043235;27;87648;-54
2023/09/30 03:49:02;;;;;;;8.03;3.60;;;24.70;66.50;;;;;;5039038;27;88957;-53
2023/09/30 03:51:30;;;;;;;4.40;3.37;;;24.80;66.50;;;;;;5042693;28;88266;-53
2023/09/30 03:54:00;;;;;;;5.93;3.30;;;24.80;66.50;;;;;;5043226;27;87311;-54
2023/09/30 03:56:28;;;;;;;4.70;3.13;;;24.80;67.40;;;;;;5043116;28;87736;-53
2023/09/30 03:58:58;;;;;;;5.43;3.30;;;24.80;66.50;;;;;;5048269;27;88485;-54
2023/09/30 04:01:27;;;;;;;6.00;3.83;;;24.80;66.50;;;;;;5058486;27;90136;-54
2023/09/30 04:03:56;;;;;;;4.17;2.77;;;24.80;66.50;;;;;;5048865;27;89939;-54
2023/09/30 04:06:24;;;;;;;6.63;3.30;;;24.80;66.90;;;;;;5052353;27;87774;-54
2023/09/30 04:08:52;;;;;;;5.27;3.87;;;24.80;66.60;;;;;;5051615;27;88653;-54
2023/09/30 04:11:21;;;;;;;4.90;3.37;;;24.80;66.60;;;;;;5053052;27;87950;-54
2023/09/30 04:13:50;;;;;;;8.13;3.37;;;24.80;66.50;;;;;;5053453;27;87485;-52
2023/09/30 04:16:20;;;;;;;7.50;3.60;;;24.70;66.40;;;;;;5052455;27;87696;-53
2023/09/30 04:18:50;;;;;;;8.30;4.70;;;24.70;66.50;;;;;;5052242;27;88602;-53
2023/09/30 04:21:18;;;;;;;5.70;4.10;;;24.70;66.40;;;;;;5053102;27;88040;-53
2023/09/30 04:23:46;;;;;;;6.00;3.73;;;24.80;67.30;;;;;;5051334;27;88727;-52
2023/09/30 04:26:14;;;;;;;11.27;4.87;;;24.80;66.50;;;;;;5044727;27;88023;-53
2023/09/30 04:28:43;;;;;;;9.33;4.67;;;24.70;66.60;;;;;;5049455;27;89888;-53
2023/09/30 04:31:13;;;;;;;9.30;4.93;;;24.70;66.60;;;;;;5053675;27;89261;-53
2023/09/30 04:33:43;;;;;;;8.13;4.57;;;24.70;66.60;;;;;;5048149;27;88905;-53
2023/09/30 04:36:11;;;;;;;7.87;4.60;;;24.70;66.70;;;;;;5053721;27;87622;-53
2023/09/30 04:38:39;;;;;;;9.63;5.77;;;24.70;66.60;;;;;;5055205;27;88735;-54
2023/09/30 04:41:08;;;;;;;11.17;5.90;;;24.70;66.70;;;;;;5049168;27;88148;-52
2023/09/30 04:43:37;;;;;;;8.70;5.33;;;24.70;66.60;;;;;;5044702;27;87830;-53
2023/09/30 04:46:07;;;;;;;10.73;5.47;;;24.70;66.60;;;;;;5056190;27;87509;-53
2023/09/30 04:48:35;;;;;;;7.97;5.43;;;24.60;66.50;;;;;;5061792;27;87368;-52
2023/09/30 04:51:08;;;;;;;9.33;5.67;;;24.70;66.60;;;;;;5046371;27;88964;-53
2023/09/30 04:53:36;;;;;;;11.67;6.23;;;24.70;66.70;;;;;;5061284;27;89943;-53
2023/09/30 04:56:05;;;;;;;10.63;5.60;;;24.70;66.60;;;;;;5044188;27;87535;-52
2023/09/30 04:58:33;;;;;;;11.60;6.00;;;24.70;66.50;;;;;;5049232;27;87506;-53
2023/09/30 05:01:01;;;;;;;11.40;6.10;;;24.60;66.60;;;;;;5044698;27;89631;-52
2023/09/30 05:03:29;;;;;;;8.17;5.53;;;24.60;66.60;;;;;;5058074;27;87935;-53
2023/09/30 05:05:58;;;;;;;13.73;6.70;;;24.60;67.40;;;;;;5057210;27;87446;-52
2023/09/30 05:08:28;;;;;;;10.10;6.30;;;24.60;66.50;;;;;;5041835;27;88585;-53
2023/09/30 05:10:57;;;;;;;9.63;6.43;;;24.60;66.50;;;;;;5057055;27;90091;-53
2023/09/30 05:13:25;;;;;;;12.63;7.03;;;24.60;66.50;;;;;;5060225;27;88639;-52
2023/09/30 05:15:53;;;;;;;11.03;6.60;;;24.60;66.50;;;;;;5047959;27;87842;-53
2023/09/30 05:18:22;;;;;;;10.47;7.50;;;24.60;67.00;;;;;;5037564;27;88557;-54
2023/09/30 05:20:50;;;;;;;10.27;6.70;;;24.60;66.50;;;;;;5054117;27;89343;-54
2023/09/30 05:23:18;;;;;;;12.50;6.30;;;24.60;66.60;;;;;;5053955;27;88867;-54
2023/09/30 05:25:48;;;;;;;9.20;5.97;;;24.60;66.60;;;;;;5042466;27;87777;-53
2023/09/30 05:28:16;;;;;;;11.47;7.60;;;24.60;66.80;;;;;;5041774;27;87502;-54
2023/09/30 05:30:45;;;;;;;13.17;7.17;;;24.60;67.50;;;;;;5045079;27;87808;-53
2023/09/30 05:33:14;;;;;;;11.47;7.23;;;24.60;66.70;;;;;;5042504;27;87964;-54
2023/09/30 05:35:42;;;;;;;11.67;6.50;;;24.60;66.70;;;;;;5041347;27;87554;-53
2023/09/30 05:38:12;;;;;;;7.50;6.27;;;24.60;66.70;;;;;;5051424;27;88430;-54
2023/09/30 05:40:41;;;;;;;12.50;7.10;;;24.60;66.60;;;;;;5044155;27;90076;-53
2023/09/30 05:43:13;;;;;;;11.47;6.13;;;24.60;66.60;;;;;;5049894;27;89813;-54
2023/09/30 05:45:48;;;;;;;10.73;6.50;;;24.60;67.60;;;;;;5040902;28;89075;-54
2023/09/30 05:48:17;;;;;;;10.03;6.90;;;24.60;66.60;;;;;;5040116;28;89700;-53
2023/09/30 05:50:45;;;;;;;9.77;5.53;;;24.60;66.60;;;;;;5039319;28;88767;-54
2023/09/30 05:53:14;;;;;;;9.17;5.37;;;24.60;66.70;;;;;;5040302;28;87351;-54
2023/09/30 05:55:43;;;;;;;9.53;5.53;;;24.60;66.70;;;;;;5040459;27;87646;-54
2023/09/30 05:58:14;;;;;;;8.03;5.37;;;24.60;66.70;;;;;;5037814;27;88561;-56
2023/09/30 06:00:42;;;;;;;10.27;5.10;;;24.60;67.70;;;;;;5022978;28;88736;-57
2023/09/30 06:03:11;;;;;;;6.50;4.57;;;24.60;66.80;;;;;;5037055;27;88828;-56
2023/09/30 06:05:40;;;;;;;7.87;5.13;;;24.60;66.90;;;;;;5037326;28;87857;-55
2023/09/30 06:08:10;;;;;;;7.70;4.90;;;24.60;66.90;;;;;;5037509;27;87405;-57
2023/09/30 06:10:42;;;;;;;7.33;4.70;;;24.60;67.00;;;;;;5036867;28;88024;-54
2023/09/30 06:13:12;;;;;;;9.40;4.50;;;24.60;67.00;;;;;;5035637;27;88005;-55
2023/09/30 06:15:41;;;;;;;11.17;5.07;;;24.60;67.10;;;;;;5037008;28;87760;-55
2023/09/30 06:18:12;;;;;;;9.53;4.90;;;24.70;67.20;;;;;;5037248;28;88775;-55
2023/09/30 06:20:41;;;;;;;9.20;4.73;;;24.70;68.10;;;;;;5037532;28;87898;-55
2023/09/30 06:23:10;;;;;;;7.33;4.30;;;24.70;67.20;;;;;;5036772;28;88748;-55
2023/09/30 06:25:39;;;;;;;5.23;4.00;;;24.70;67.20;;;;;;5037668;28;87679;-55
2023/09/30 06:28:08;;;;;;;5.13;4.07;;;24.80;67.40;;;;;;5037316;27;88633;-55
2023/09/30 06:30:38;;;;;;;6.87;4.30;;;24.70;67.20;;;;;;5036622;27;88967;-56
2023/09/30 06:33:09;;;;;;;8.93;4.27;;;24.70;67.30;;;;;;5037157;27;88756;-58
2023/09/30 06:35:40;;;;;;;3.90;3.43;;;24.80;68.30;;;;;;5037411;27;87325;-54
2023/09/30 06:38:08;;;;;;;6.20;3.73;;;24.80;67.60;;;;;;5038065;27;88285;-56
2023/09/30 06:40:37;;;;;;;6.93;3.80;;;24.80;67.50;;;;;;5040934;28;88047;-54
2023/09/30 06:43:08;;;;;;;5.00;3.57;;;24.80;68.40;;;;;;5040319;28;87842;-54
2023/09/30 06:45:41;;;;;;;5.23;3.67;;;24.80;67.60;;;;;;5040921;27;87663;-54
2023/09/30 06:48:12;;;;;;;6.73;3.80;;;24.80;67.60;;;;;;5040135;28;89663;-54
2023/09/30 06:50:41;;;;;;;5.63;3.47;;;24.80;67.70;;;;;;5040358;28;88054;-54
2023/09/30 06:53:09;;;;;;;6.13;3.50;;;24.80;67.50;;;;;;5039780;27;88736;-54
2023/09/30 06:55:39;;;;;;;4.87;3.73;;;24.80;67.50;;;;;;5040437;27;87989;-55
2023/09/30 06:58:08;;;;;;;5.47;3.47;;;24.90;67.60;;;;;;5040185;27;89619;-54
2023/09/30 07:00:38;;;;;;;4.73;3.10;;;24.90;67.60;;;;;;5040385;27;87702;-54
2023/09/30 07:03:06;;;;;;;4.67;3.37;;;24.90;67.70;;;;;;5040069;27;88173;-54
2023/09/30 07:05:34;;;;;;;6.53;3.53;;;24.90;67.60;;;;;;5040502;27;87711;-54
2023/09/30 07:08:02;;;;;;;4.80;2.60;;;24.90;67.60;;;;;;5039887;27;89702;-54
2023/09/30 07:10:31;;;;;;;5.97;3.40;;;24.90;67.70;;;;;;5039958;28;88039;-54
2023/09/30 07:12:59;;;;;;;6.83;2.67;;;24.90;67.60;;;;;;5037797;27;87583;-54
2023/09/30 07:15:27;;;;;;;7.07;3.47;;;24.90;67.70;;;;;;5036158;27;87628;-54
2023/09/30 07:17:57;;;;;;;6.13;3.77;;;24.90;67.70;;;;;;5042075;27;88257;-54
2023/09/30 07:20:26;;;;;;;4.83;2.47;;;24.90;67.70;;;;;;5041543;27;88958;-54
2023/09/30 07:22:54;;;;;;;5.67;2.80;;;24.90;67.70;;;;;;5042129;28;88862;-53
2023/09/30 07:25:38;;;;;;;4.57;2.17;;;25.00;67.80;;;;;;5042843;28;87560;-54
2023/09/30 07:28:11;;;;;;;5.00;2.43;;;25.00;67.90;;;;;;5043104;28;89614;-53
2023/09/30 07:30:40;;;;;;;3.80;2.40;;;25.00;67.90;;;;;;5042688;28;88251;-53
2023/09/30 07:33:09;;;;;;;2.97;2.13;;;25.00;67.90;;;;;;5042180;27;87770;-53
2023/09/30 07:35:39;;;;;;;4.53;2.17;;;25.00;68.10;;;;;;5043146;27;87650;-53
2023/09/30 07:38:07;;;;;;;7.97;2.40;;;25.00;68.10;;;;;;5042547;27;88262;-54
2023/09/30 07:40:35;;;;;;;3.13;2.57;;;25.00;68.10;;;;;;5042862;28;89083;-52
2023/09/30 07:43:03;;;;;;;5.87;2.23;;;24.90;68.00;;;;;;5041928;27;87815;-53
2023/09/30 07:45:32;;;;;;;3.77;2.40;;;25.00;68.10;;;;;;5042326;27;87693;-53
2023/09/30 07:48:00;;;;;;;4.00;2.23;;;25.00;68.20;;;;;;5042533;28;89697;-53
2023/09/30 07:50:30;;;;;;;2.80;2.03;;;25.00;68.30;;;;;;5040852;28;89154;-54
2023/09/30 07:53:00;;;;;;;4.03;2.27;;;24.90;68.20;;;;;;5041893;28;87819;-53
2023/09/30 07:55:28;;;;;;;4.67;2.30;;;24.90;68.10;;;;;;5042533;28;87613;-53
2023/09/30 07:57:59;;;;;;;3.43;1.73;;;24.90;68.10;;;;;;5042404;27;89633;-53
2023/09/30 08:00:27;;;;;;;3.47;1.70;;;25.00;68.40;;;;;;5042322;27;87888;-54
2023/09/30 08:02:55;;;;;;;2.33;1.57;;;25.00;68.30;;;;;;5042788;27;87762;-52
2023/09/30 08:05:23;;;;;;;2.73;2.10;;;24.90;68.20;;;;;;5042160;27;87644;-54
2023/09/30 08:07:52;;;;;;;3.00;2.13;;;25.00;68.30;;;;;;5042020;27;88594;-54
2023/09/30 08:10:20;;;;;;;3.87;2.40;;;25.00;68.40;;;;;;5042199;28;88973;-52
2023/09/30 08:12:49;;;;;;;5.20;2.70;;;25.00;68.40;;;;;;5040027;27;89870;-52
2023/09/30 08:15:18;;;;;;;3.50;1.70;;;25.00;68.40;;;;;;5037250;28;87682;-52
2023/09/30 08:17:46;;;;;;;6.23;2.03;;;25.00;68.40;;;;;;5041266;28;88493;-52
2023/09/30 08:20:14;;;;;;;2.77;1.37;;;25.00;68.40;;;;;;5039872;28;88052;-52
2023/09/30 08:22:42;;;;;;;4.27;1.97;;;25.00;68.30;;;;;;5038787;28;88810;-52
2023/09/30 08:25:12;;;;;;;1.23;1.13;;;25.10;68.40;;;;;;5042496;28;87646;-52
2023/09/30 08:27:40;;;;;;;2.63;1.80;;;25.10;68.40;;;;;;5039558;27;89657;-53
2023/09/30 08:30:10;;;;;;;2.77;1.63;;;25.10;68.30;;;;;;5040878;28;88014;-53
2023/09/30 08:32:38;;;;;;;3.93;2.00;;;25.10;68.20;;;;;;5041332;27;87759;-53
2023/09/30 08:35:07;;;;;;;2.37;1.57;;;25.10;68.20;;;;;;5041689;27;87776;-52
2023/09/30 08:37:35;;;;;;;2.20;1.40;;;25.10;68.20;;;;;;5041391;27;89425;-53
2023/09/30 08:40:05;;;;;;;3.10;1.73;;;25.10;68.30;;;;;;5041771;27;87944;-52
2023/09/30 08:42:35;;;;;;;2.43;1.57;;;25.20;68.30;;;;;;5041668;27;87379;-51
2023/09/30 08:45:04;;;;;;;2.67;1.40;;;25.20;68.20;;;;;;5041962;28;87720;-52
2023/09/30 08:47:34;;;;;;;2.30;1.33;;;25.20;68.10;;;;;;5041160;28;89649;-52
2023/09/30 08:50:05;;;;;;;1.53;1.33;;;25.20;69.00;;;;;;5041758;27;88046;-52
2023/09/30 08:52:34;;;;;;;4.23;1.60;;;25.20;68.10;;;;;;5041072;27;88756;-52
2023/09/30 08:55:08;;;;;;;2.13;1.33;;;25.20;68.10;;;;;;5021777;28;87396;-51
2023/09/30 08:57:40;;;;;;;2.23;1.50;;;25.20;68.00;;;;;;5040115;28;89574;-52
2023/09/30 09:00:11;;;;;;;1.40;1.17;;;25.20;68.90;;;;;;5040681;28;89142;-52
2023/09/30 09:02:39;;;;;;;1.80;1.13;;;25.20;68.00;;;;;;5040827;27;88744;-52
2023/09/30 09:05:09;;;;;;;3.77;1.50;;;25.20;68.20;;;;;;5041130;28;87607;-52
2023/09/30 09:07:37;;;;;;;3.73;1.20;;;25.20;68.10;;;;;;5041723;27;89447;-52
2023/09/30 09:10:07;;;;;;;5.33;1.70;;;25.20;68.10;;;;;;5041809;28;87962;-52
2023/09/30 09:12:36;;;;;;;2.10;1.30;;;25.10;68.10;;;;;;5041732;28;87759;-52
2023/09/30 09:15:07;;;;;;;3.83;1.80;;;25.20;68.10;;;;;;5041991;27;87659;-52
2023/09/30 09:17:42;;;;;;;1.70;1.13;;;25.10;68.10;;;;;;5038173;27;88754;-52
2023/09/30 09:20:13;;;;;;;1.73;1.20;;;25.10;68.10;;;;;;5041301;28;87628;-52
2023/09/30 09:22:42;;;;;;;3.97;1.80;;;25.10;68.00;;;;;;5042979;27;88680;-52
2023/09/30 09:25:10;;;;;;;2.17;1.40;;;25.10;68.00;;;;;;5041314;28;87997;-52
2023/09/30 09:27:39;;;;;;;2.87;1.53;;;25.10;68.00;;;;;;5033202;28;88535;-52
2023/09/30 09:30:18;;;;;;;3.43;1.80;;;25.10;68.00;;;;;;5039436;28;88212;-52
2023/09/30 09:32:59;;;;;;;2.20;1.33;;;25.10;68.00;;;;;;5041048;27;87994;-52
2023/09/30 09:35:28;;;;;;;3.17;1.10;;;25.10;68.00;;;;;;5041772;27;87513;-52
2023/09/30 09:37:57;;;;;;;3.03;1.50;;;25.10;68.70;;;;;;5041057;28;88595;-52
2023/09/30 09:40:27;;;;;;;3.30;1.33;;;25.10;67.80;;;;;;5041183;28;87681;-52
2023/09/30 09:42:55;;;;;;;2.97;1.30;;;25.10;67.80;;;;;;5041310;27;87402;-52
2023/09/30 09:45:27;;;;;;;1.43;1.07;;;25.10;68.00;;;;;;5040975;28;87277;-52
2023/09/30 09:47:56;;;;;;;8.93;1.33;;;25.10;67.80;;;;;;5041109;28;88697;-52
2023/09/30 09:50:24;;;;;;;2.23;1.17;;;25.10;67.80;;;;;;5039905;28;90009;-52
2023/09/30 09:52:54;;;;;;;1.57;1.00;;;25.10;67.80;;;;;;5040723;28;89838;-52
2023/09/30 09:55:23;;;;;;;1.77;1.03;;;25.10;67.70;;;;;;5041133;28;87669;-52
2023/09/30 09:57:51;;;;;;;2.37;1.00;;;25.10;67.60;;;;;;5040938;27;89426;-52
2023/09/30 10:00:20;;;;;;;3.57;1.07;;;25.10;67.60;;;;;;5040442;27;88078;-52
2023/09/30 10:02:50;;;;;;;1.30;0.90;;;25.20;67.60;;;;;;5039044;27;88996;-61
2023/09/30 10:05:18;;;;;;;1.17;0.90;;;25.10;67.50;;;;;;5039952;27;87619;-57
2023/09/30 10:07:53;;;;;;;1.70;0.80;;;25.10;67.50;;;;;;5040342;28;89610;-61
2023/09/30 10:10:21;;;;;;;3.03;1.00;;;25.20;67.60;;;;;;5040330;28;87985;-60
2023/09/30 10:12:49;;;;;;;1.37;0.90;;;25.20;67.60;;;;;;5039966;28;88674;-60
2023/09/30 10:15:35;;;;;;;1.17;0.73;;;25.20;67.60;;;;;;5040056;27;87899;-61
2023/09/30 10:18:07;;;;;;;1.13;0.80;;;25.20;67.50;;;;;;5040591;27;88564;-63
2023/09/30 10:20:41;;;;;;;1.60;0.93;;;25.20;67.60;;;;;;5040253;28;88057;-60
2023/09/30 10:23:25;;;;;;;1.53;0.90;;;25.30;67.60;;;;;;5040534;27;88888;-59
2023/09/30 10:25:57;;;;;;;0.93;0.83;;;25.30;67.60;;;;;;5040678;27;87473;-59
2023/09/30 10:28:36;;;;;;;1.80;1.03;;;25.30;67.50;;;;;;5040512;28;89614;-68
2023/09/30 10:31:09;;;;;;;1.50;1.00;;;25.30;67.60;;;;;;5039432;28;89191;-61
2023/09/30 10:33:53;;;;;;;1.40;0.77;;;25.30;67.70;;;;;;5040579;27;88986;-60
2023/09/30 10:36:28;;;;;;;2.60;1.00;;;25.30;67.60;;;;;;5040097;28;87568;-59
2023/09/30 10:38:56;;;;;;;3.60;1.00;;;25.30;67.60;;;;;;5040060;28;87461;-58
2023/09/30 10:41:51;;;;;;;2.60;1.10;;;25.30;67.60;;;;;;5039260;28;89561;-64
2023/09/30 10:44:35;;;;;;;1.93;1.13;;;25.30;67.60;;;;;;5028573;28;88863;-55
2023/09/30 10:47:36;;;;;;;1.53;0.70;;;25.40;67.90;;;;;;5031462;28;89408;-58
2023/09/30 10:50:29;;;;;;;4.10;1.10;;;25.40;67.70;;;;;;5037646;28;89348;-58
2023/09/30 10:52:58;;;;;;;5.17;1.43;;;25.50;67.70;;;;;;5038648;28;88073;-57
2023/09/30 10:55:26;;;;;;;4.67;0.80;;;25.50;67.60;;;;;;5038652;27;89086;-57
2023/09/30 10:57:54;;;;;;;1.90;1.03;;;25.50;67.70;;;;;;5037981;28;87727;-58
2023/09/30 11:00:22;;;;;;;4.70;1.10;;;25.60;67.70;;;;;;5031578;28;89685;-56
2023/09/30 11:02:52;;;;;;;2.40;1.10;;;25.60;67.60;;;;;;5035786;28;88341;-57
2023/09/30 11:05:23;;;;;;;1.33;0.77;;;25.60;67.60;;;;;;5036199;28;87828;-58
2023/09/30 11:08:13;;;;;;;5.07;1.30;;;25.60;67.60;;;;;;5036043;28;88334;-58
2023/09/30 11:10:48;;;;;;;3.73;1.20;;;25.70;67.60;;;;;;5036625;27;88518;-60
2023/09/30 11:13:16;;;;;;;0.90;0.90;;;25.60;67.50;;;;;;5036133;28;87593;-59
2023/09/30 11:15:44;;;;;;;2.60;1.20;;;25.60;67.50;;;;;;5034070;27;88738;-58
2023/09/30 11:18:16;;;;;;;1.37;1.13;;;25.70;67.60;;;;;;5033880;28;88886;-57
2023/09/30 11:20:46;;;;;;;1.67;0.90;;;25.70;67.40;;;;;;5042009;27;88578;-62
2023/09/30 11:23:14;;;;;;;3.10;0.73;;;25.70;67.60;;;;;;5035462;27;88035;-59
2023/09/30 11:25:42;;;;;;;1.33;1.07;;;25.70;67.40;;;;;;5048415;27;87952;-64
2023/09/30 11:28:15;;;;;;;2.20;1.10;;;25.70;67.40;;;;;;5041171;27;87639;-59
2023/09/30 11:30:56;;;;;;;2.07;1.20;;;25.70;67.50;;;;;;5040194;27;88343;-58
2023/09/30 11:33:25;;;;;;;4.43;1.10;;;25.80;67.40;;;;;;5039410;28;88825;-59
2023/09/30 11:36:02;;;;;;;1.53;1.07;;;25.80;67.30;;;;;;5039974;28;89854;-59
2023/09/30 11:38:30;;;;;;;3.93;1.20;;;25.80;67.30;;;;;;5040490;28;87290;-60
2023/09/30 11:41:02;;;;;;;4.07;1.50;;;25.70;67.10;;;;;;5040268;28;87431;-60
2023/09/30 11:43:30;;;;;;;2.63;1.40;;;25.80;67.30;;;;;;5039979;28;89122;-58
2023/09/30 11:46:08;;;;;;;1.80;1.17;;;25.80;67.10;;;;;;5040180;27;87918;-60
2023/09/30 11:48:37;;;;;;;2.13;0.97;;;25.80;67.10;;;;;;5039316;27;87662;-60
2023/09/30 11:51:06;;;;;;;2.17;1.50;;;25.90;67.10;;;;;;5039655;28;89731;-64
2023/09/30 11:53:36;;;;;;;1.30;0.87;;;25.90;67.00;;;;;;5038224;28;87839;-56
2023/09/30 11:56:04;;;;;;;5.03;1.60;;;26.00;67.20;;;;;;5028181;28;88786;-56
2023/09/30 11:58:34;;;;;;;3.90;1.63;;;26.00;67.20;;;;;;5039322;28;88508;-56
2023/09/30 12:01:02;;;;;;;2.73;1.70;;;26.10;67.20;;;;;;5037083;28;88430;-55
2023/09/30 12:03:30;;;;;;;1.80;1.30;;;26.10;67.20;;;;;;5032355;28;89236;-56
2023/09/30 12:06:00;;;;;;;3.70;2.50;;;26.20;67.50;;;;;;5036044;27;87686;-54
2023/09/30 12:08:30;;;;;;;2.60;1.33;;;26.20;67.50;;;;;;5036444;27;87672;-57
2023/09/30 12:10:59;;;;;;;5.80;2.23;;;26.20;67.30;;;;;;5036980;28;88367;-58
2023/09/30 12:13:27;;;;;;;7.63;1.50;;;26.20;67.30;;;;;;5039080;27;89372;-54
2023/09/30 12:15:57;;;;;;;3.37;1.67;;;26.30;67.40;;;;;;5039553;27;87394;-56
2023/09/30 12:18:26;;;;;;;4.63;1.40;;;26.30;67.50;;;;;;5039677;28;87671;-56
2023/09/30 12:20:54;;;;;;;2.40;1.20;;;26.30;67.50;;;;;;5039535;27;88671;-57
2023/09/30 12:23:23;;;;;;;4.80;1.63;;;26.40;67.40;;;;;;5018816;28;88999;-62
2023/09/30 12:25:54;;;;;;;4.80;1.30;;;26.40;67.30;;;;;;5018533;28;88704;-62
2023/09/30 12:28:40;;;;;;;2.43;1.23;;;26.30;67.10;;;;;;5019608;28;87501;-60
2023/09/30 12:31:10;;;;;;;1.57;1.20;;;26.40;67.20;;;;;;5019438;28;89975;-65
2023/09/30 12:33:40;;;;;;;4.17;1.63;;;26.30;67.00;;;;;;5019729;28;89882;-61
2023/09/30 12:36:12;;;;;;;3.37;1.10;;;26.30;67.00;;;;;;5032698;27;87656;-61
2023/09/30 12:38:50;;;;;;;4.47;1.70;;;26.30;67.00;;;;;;5035887;28;89630;-62
2023/09/30 12:41:21;;;;;;;1.83;1.17;;;26.30;66.80;;;;;;5039090;28;89379;-53
2023/09/30 12:43:49;;;;;;;2.00;1.13;;;26.20;66.70;;;;;;5037050;27;89238;-52
2023/09/30 12:46:18;;;;;;;2.37;1.40;;;26.20;67.50;;;;;;5038325;28;87532;-52
2023/09/30 12:48:48;;;;;;;1.87;1.37;;;26.80;67.20;;;;;;5038372;28;88498;-53
2023/09/30 12:51:17;;;;;;;3.63;1.07;;;26.30;67.40;;;;;;5038143;28;88618;-53
2023/09/30 12:53:48;;;;;;;4.50;1.53;;;26.30;66.50;;;;;;5038699;28;88652;-53
2023/09/30 12:56:16;;;;;;;4.73;1.37;;;26.30;66.40;;;;;;5035827;27;90278;-52
2023/09/30 12:58:46;;;;;;;3.17;0.90;;;26.20;66.20;;;;;;5038853;27;88532;-53